Time;durP1;ratioP1;P1;durP2;ratioP2;P2;SDS_P1;SDS_P2;PMS_P1;PMS_P2;Temp;Humidity;BMP_temperature;BMP_pressure;BME280_temperature;BME280_humidity;BME280_pressure;Samples;Min_cycle;Max_cycle;Signal;HPM_P1;HPM_P2
2022/02/04 00:06:55;;;;;;;6.13;4.25;;;;;;;;;;5043497;28;19966;-50
2022/02/04 00:09:17;;;;;;;6.50;4.28;;;;;;;;;;5043509;28;20124;-49
2022/02/04 00:25:15;;;;;;;7.70;4.30;;;;;;;;;;5046920;28;20611;-52
2022/02/04 00:27:41;;;;;;;7.88;4.45;;;;;;;;;;5047392;28;20078;-52
2022/02/04 00:30:16;;;;;;;8.82;4.40;;;;;;;;;;5044877;28;20029;-49
2022/02/04 00:32:44;;;;;;;6.65;4.25;;;;;;;;;;5045708;28;20114;-49
2022/02/04 00:35:27;;;;;;;6.18;4.13;;;;;;;;;;5047548;28;20035;-48
2022/02/04 00:40:21;;;;;;;7.03;4.22;;;;;;;;;;5035239;28;20042;-52
2022/02/04 00:42:48;;;;;;;6.97;4.40;;;;;;;;;;5026503;28;20507;-51
2022/02/04 00:45:25;;;;;;;5.22;3.63;;;;;;;;;;5026425;28;20026;-50
2022/02/04 00:47:58;;;;;;;6.28;3.80;;;;;;;;;;5026302;28;20088;-50
2022/02/04 00:53:04;;;;;;;6.50;4.10;;;;;;;;;;5026862;28;20037;-51
2022/02/04 00:55:41;;;;;;;5.30;3.60;;;;;;;;;;5026266;28;20087;-48
2022/02/04 01:28:25;;;;;;;9.25;5.22;;;;;;;;;;5044625;28;20036;-51
2022/02/04 01:30:54;;;;;;;12.10;6.20;;;;;;;;;;5045543;28;20029;-52
2022/02/04 01:33:20;;;;;;;14.65;7.30;;;;;;;;;;5027629;28;20429;-51
2022/02/04 01:35:47;;;;;;;18.17;8.70;;;;;;;;;;5045546;28;20416;-49
2022/02/04 01:38:13;;;;;;;17.02;8.07;;;;;;;;;;5044572;28;20140;-49
2022/02/04 01:40:39;;;;;;;15.57;8.20;;;;;;;;;;5046081;28;20036;-51
2022/02/04 01:43:05;;;;;;;15.20;7.40;;;;;;;;;;5044532;28;20040;-51
2022/02/04 01:45:31;;;;;;;15.30;7.40;;;;;;;;;;5043933;28;20036;-49
2022/02/04 01:47:57;;;;;;;14.90;7.38;;;;;;;;;;5045346;28;20029;-53
2022/02/04 01:50:25;;;;;;;11.75;5.85;;;;;;;;;;5043688;28;20575;-49
2022/02/04 01:52:52;;;;;;;10.68;5.78;;;;;;;;;;5045409;28;20474;-50
2022/02/04 01:55:19;;;;;;;10.88;5.32;;;;;;;;;;5025477;28;20041;-51
2022/02/04 01:57:45;;;;;;;11.93;5.95;;;;;;;;;;5027165;28;20506;-51
2022/02/04 02:00:11;;;;;;;9.98;5.68;;;;;;;;;;5027318;28;20037;-50
2022/02/04 02:02:37;;;;;;;10.10;5.40;;;;;;;;;;5043629;28;20025;-53
2022/02/04 02:05:04;;;;;;;8.73;4.65;;;;;;;;;;5035503;28;20119;-52
2022/02/04 02:07:31;;;;;;;7.63;4.75;;;;;;;;;;5025161;28;20055;-52
2022/02/04 02:10:06;;;;;;;8.52;4.40;;;;;;;;;;5025688;28;20041;-52
2022/02/04 02:12:43;;;;;;;6.32;4.20;;;;;;;;;;5025416;28;20029;-49
2022/02/04 02:34:49;;;;;;;;;;;;;;;;;;5025034;28;20095;-51
2022/02/04 02:52:47;;;;;;;3.40;2.97;;;;;;;;;;5025628;28;20037;-52
2022/02/04 03:03:11;;;;;;;4.90;3.22;;;;;;;;;;5041597;28;20106;-51
2022/02/04 03:05:37;;;;;;;4.57;3.17;;;;;;;;;;5043670;28;20028;-48
2022/02/04 03:08:03;;;;;;;4.05;3.17;;;;;;;;;;5044670;28;20065;-52
2022/02/04 03:10:29;;;;;;;5.70;3.40;;;;;;;;;;5044591;28;20025;-52
2022/02/04 03:12:55;;;;;;;4.40;3.30;;;;;;;;;;5033490;28;20108;-52
2022/02/04 03:15:21;;;;;;;4.35;3.08;;;;;;;;;;5024575;28;20057;-52
2022/02/04 03:17:56;;;;;;;4.28;3.05;;;;;;;;;;5024667;28;20029;-51
2022/02/04 03:20:23;;;;;;;4.63;3.25;;;;;;;;;;5024602;28;20026;-48
2022/02/04 03:22:51;;;;;;;4.18;2.70;;;;;;;;;;5024273;28;20512;-52
2022/02/04 03:25:18;;;;;;;4.40;3.22;;;;;;;;;;5024446;28;20342;-52
2022/02/04 03:27:50;;;;;;;5.60;3.55;;;;;;;;;;5024258;28;20079;-52
2022/02/04 03:30:21;;;;;;;4.38;3.20;;;;;;;;;;5024702;28;20033;-51
2022/02/04 03:32:49;;;;;;;3.83;2.90;;;;;;;;;;5024141;28;20033;-49
2022/02/04 03:35:21;;;;;;;3.90;3.08;;;;;;;;;;5024716;28;20021;-49
2022/02/04 03:37:47;;;;;;;4.68;3.47;;;;;;;;;;5024424;28;20078;-51
2022/02/04 03:40:14;;;;;;;3.15;2.75;;;;;;;;;;5025038;28;20029;-51
2022/02/04 03:42:40;;;;;;;4.18;3.28;;;;;;;;;;5030863;28;20036;-51
2022/02/04 03:45:06;;;;;;;4.88;3.58;;;;;;;;;;5046570;28;20485;-51
2022/02/04 03:47:32;;;;;;;3.15;2.75;;;;;;;;;;5048373;28;20029;-52
2022/02/04 03:49:58;;;;;;;5.13;3.45;;;;;;;;;;5040793;28;20495;-52
2022/02/04 03:52:24;;;;;;;4.38;3.20;;;;;;;;;;5028380;28;20404;-49
2022/02/04 03:54:51;;;;;;;3.72;2.85;;;;;;;;;;5028131;28;20030;-50
2022/02/04 03:57:17;;;;;;;3.72;2.80;;;;;;;;;;5028523;28;20037;-49
2022/02/04 03:59:45;;;;;;;3.70;2.80;;;;;;;;;;5027804;28;20037;-50
2022/02/04 04:02:12;;;;;;;4.40;3.20;;;;;;;;;;5028739;28;20029;-49
2022/02/04 04:04:38;;;;;;;4.97;3.28;;;;;;;;;;5028603;28;20021;-50
2022/02/04 04:07:04;;;;;;;4.25;3.05;;;;;;;;;;5028301;28;20554;-52
2022/02/04 04:09:32;;;;;;;4.28;3.20;;;;;;;;;;5027847;28;20289;-52
2022/02/04 04:11:58;;;;;;;3.47;2.55;;;;;;;;;;5028037;28;20033;-51
2022/02/04 04:14:24;;;;;;;3.95;2.78;;;;;;;;;;5027659;28;20037;-51
2022/02/04 04:16:50;;;;;;;3.35;2.83;;;;;;;;;;5028001;28;20033;-49
2022/02/04 04:19:16;;;;;;;4.30;3.15;;;;;;;;;;5028027;28;20531;-51
2022/02/04 04:21:42;;;;;;;4.05;2.88;;;;;;;;;;5028234;28;20398;-52
2022/02/04 04:24:08;;;;;;;3.65;2.70;;;;;;;;;;5033889;28;20080;-51
2022/02/04 04:26:34;;;;;;;3.88;2.80;;;;;;;;;;5047496;28;20023;-48
2022/02/04 04:29:00;;;;;;;2.88;2.45;;;;;;;;;;5047630;28;20078;-51
2022/02/04 04:31:26;;;;;;;3.20;2.70;;;;;;;;;;5047255;28;20509;-50
2022/02/04 04:33:52;;;;;;;3.30;2.65;;;;;;;;;;5043316;28;20025;-51
2022/02/04 04:36:20;;;;;;;6.28;2.78;;;;;;;;;;5027217;28;20444;-50
2022/02/04 04:39:41;;;;;;;3.47;2.40;;;;;;;;;;5027848;28;20018;-50
2022/02/04 04:41:49;;;;;;;3.47;2.58;;;;;;;;;;5026680;28;20420;-50
2022/02/04 05:28:14;;;;;;;;;;;;;;;;;;5046828;28;20044;-52
2022/02/04 05:30:41;;;;;;;2.50;2.13;;;;;;;;;;5046658;28;19911;-51
2022/02/04 05:33:08;;;;;;;3.17;2.13;;;;;;;;;;5046486;28;20496;-50
2022/02/04 05:35:36;;;;;;;2.75;2.30;;;;;;;;;;5034283;28;20017;-51
2022/02/04 05:38:03;;;;;;;4.28;3.35;;;;;;;;;;5026577;28;20179;-52
2022/02/04 05:40:36;;;;;;;4.95;3.78;;;;;;;;;;5027241;28;20492;-49
2022/02/04 05:43:13;;;;;;;4.87;3.67;;;;;;;;;;5035622;28;20126;-51
2022/02/04 05:45:40;;;;;;;5.18;3.97;;;;;;;;;;5046332;28;20322;-50
2022/02/04 05:48:07;;;;;;;4.82;3.42;;;;;;;;;;5036043;28;20493;-48
2022/02/04 05:50:40;;;;;;;5.57;3.95;;;;;;;;;;5039540;28;20029;-50
2022/02/04 05:53:18;;;;;;;4.80;3.97;;;;;;;;;;5026194;28;20035;-48
2022/02/04 06:01:25;;;;;;;6.30;4.38;;;;;;;;;;5032740;28;20140;-51
2022/02/04 06:22:21;;;;;;;5.80;3.65;;;;;;;;;;5025700;28;20045;-50
2022/02/04 06:24:48;;;;;;;5.20;3.25;;;;;;;;;;5024248;28;20460;-52
2022/02/04 06:27:14;;;;;;;4.75;2.97;;;;;;;;;;5025508;28;20325;-52
2022/02/04 06:29:41;;;;;;;4.57;3.17;;;;;;;;;;5026079;28;20382;-49
2022/02/04 06:32:07;;;;;;;4.35;2.97;;;;;;;;;;5025563;28;20268;-52
2022/02/04 06:34:34;;;;;;;4.00;2.90;;;;;;;;;;5025138;28;20704;-50
2022/02/04 06:37:00;;;;;;;4.50;2.88;;;;;;;;;;5027051;28;20027;-50
2022/02/04 06:39:26;;;;;;;4.97;3.53;;;;;;;;;;5024835;28;20401;-52
2022/02/04 06:41:52;;;;;;;4.90;3.42;;;;;;;;;;5026777;28;20025;-51
2022/02/04 06:44:18;;;;;;;4.18;3.28;;;;;;;;;;5037651;28;20032;-49
2022/02/04 06:46:44;;;;;;;4.63;3.22;;;;;;;;;;5043349;28;20420;-51
2022/02/04 06:49:11;;;;;;;3.90;2.90;;;;;;;;;;5047288;28;20583;-52
2022/02/04 06:51:37;;;;;;;3.92;2.72;;;;;;;;;;5044059;28;20132;-50
2022/02/04 06:54:03;;;;;;;3.92;3.08;;;;;;;;;;5046206;28;20036;-52
2022/02/04 06:56:33;;;;;;;4.40;2.95;;;;;;;;;;5046043;28;20052;-52
2022/02/04 06:58:59;;;;;;;3.78;3.03;;;;;;;;;;5038303;28;20080;-50
2022/02/04 07:01:27;;;;;;;4.45;3.20;;;;;;;;;;5030270;28;20057;-52
2022/02/04 07:03:53;;;;;;;4.40;2.90;;;;;;;;;;5036390;28;20025;-50
2022/02/04 07:06:19;;;;;;;5.43;3.40;;;;;;;;;;5040081;28;20751;-52
2022/02/04 07:16:37;;;;;;;3.33;2.58;;;;;;;;;;5045290;28;20048;-52
2022/02/04 07:21:48;;;;;;;2.88;2.20;;;;;;;;;;5032654;28;20083;-51
2022/02/04 07:24:15;;;;;;;4.07;2.95;;;;;;;;;;5039691;28;20029;-51
2022/02/04 07:26:41;;;;;;;3.45;2.70;;;;;;;;;;5036852;28;20024;-51
2022/02/04 07:29:07;;;;;;;3.67;2.60;;;;;;;;;;5033967;28;20408;-51
2022/02/04 07:31:37;;;;;;;5.93;4.05;;;;;;;;;;5038696;28;20504;-49
2022/02/04 07:41:47;;;;;;;4.40;3.00;;;;;;;;;;5045791;28;20435;-52
2022/02/04 07:44:16;;;;;;;4.65;3.15;;;;;;;;;;5046196;28;20384;-53
2022/02/04 07:46:42;;;;;;;3.92;2.88;;;;;;;;;;5038865;28;20492;-49
2022/02/04 07:49:08;;;;;;;4.93;3.25;;;;;;;;;;5044991;28;20063;-50
2022/02/04 07:51:35;;;;;;;4.85;2.75;;;;;;;;;;5033210;28;20040;-51
2022/02/04 07:54:01;;;;;;;3.83;2.47;;;;;;;;;;5035842;28;20507;-52
2022/02/04 07:56:28;;;;;;;3.88;2.67;;;;;;;;;;5028610;28;20432;-51
2022/02/04 07:58:56;;;;;;;3.60;2.72;;;;;;;;;;5025118;28;20072;-50
2022/02/04 08:01:27;;;;;;;3.60;2.50;;;;;;;;;;5032189;28;20076;-52
2022/02/04 08:04:00;;;;;;;3.33;2.45;;;;;;;;;;5045134;28;20404;-52
2022/02/04 08:06:27;;;;;;;3.38;2.25;;;;;;;;;;5034205;28;20059;-51
2022/02/04 08:51:51;;;;;;;5.90;3.47;;;;;;;;;;5046733;28;20044;-49
2022/02/04 08:57:10;;;;;;;5.55;3.28;;;;;;;;;;5043749;28;20056;-51
2022/02/04 09:02:18;;;;;;;5.43;3.33;;;;;;;;;;5029791;28;20037;-53
2022/02/04 09:04:48;;;;;;;5.22;3.10;;;;;;;;;;5045499;28;20141;-52
2022/02/04 09:07:17;;;;;;;3.70;2.45;;;;;;;;;;5035946;28;20044;-53
2022/02/04 09:09:50;;;;;;;3.88;2.33;;;;;;;;;;5064573;28;20024;-50
2022/02/04 09:16:50;;;;;;;2.80;2.08;;;;;;;;;;5051283;28;20039;-53
2022/02/04 09:20:36;;;;;;;3.30;2.38;;;;;;;;;;5027728;28;20044;-50
2022/02/04 09:23:03;;;;;;;4.20;2.42;;;;;;;;;;5027780;28;20033;-49
2022/02/04 09:25:29;;;;;;;4.05;2.75;;;;;;;;;;5043744;28;20028;-51
2022/02/04 09:27:56;;;;;;;3.72;2.60;;;;;;;;;;5047543;28;20079;-49
2022/02/04 09:30:23;;;;;;;4.10;2.85;;;;;;;;;;5047491;28;20458;-51
2022/02/04 09:32:50;;;;;;;3.72;2.58;;;;;;;;;;5047752;28;20037;-52
2022/02/04 09:35:22;;;;;;;8.35;3.28;;;;;;;;;;5047639;28;20107;-52
2022/02/04 09:37:48;;;;;;;4.97;3.22;;;;;;;;;;5047675;28;20025;-52
2022/02/04 09:40:14;;;;;;;5.10;3.22;;;;;;;;;;5037626;28;20401;-49
2022/02/04 09:42:42;;;;;;;6.43;3.42;;;;;;;;;;5036193;28;20480;-53
2022/02/04 09:45:09;;;;;;;8.43;4.45;;;;;;;;;;5029216;28;20447;-52
2022/02/04 09:47:37;;;;;;;18.65;8.25;;;;;;;;;;5028529;28;20487;-52
2022/02/04 09:50:10;;;;;;;19.85;8.27;;;;;;;;;;5035317;28;20032;-51
2022/02/04 10:09:38;;;;;;;11.82;6.03;;;;;;;;;;5025702;28;20121;-51
2022/02/04 10:12:29;;;;;;;10.23;5.88;;;;;;;;;;5027967;28;20036;-52
2022/02/04 10:15:14;;;;;;;7.93;5.00;;;;;;;;;;5036483;28;20044;-53
2022/02/04 10:17:56;;;;;;;8.70;5.00;;;;;;;;;;5040519;28;20021;-49
2022/02/04 10:20:24;;;;;;;6.35;4.43;;;;;;;;;;5026002;28;20091;-51
2022/02/04 10:22:50;;;;;;;7.05;4.55;;;;;;;;;;5028036;28;20025;-51
2022/02/04 10:25:17;;;;;;;5.30;3.70;;;;;;;;;;5027878;28;20637;-52
2022/02/04 10:27:47;;;;;;;5.40;3.67;;;;;;;;;;5027947;28;20371;-50
2022/02/04 10:30:15;;;;;;;5.95;3.53;;;;;;;;;;5028232;28;20064;-53
2022/02/04 10:32:51;;;;;;;5.55;3.20;;;;;;;;;;5028098;28;20031;-52
2022/02/04 10:35:20;;;;;;;5.93;3.58;;;;;;;;;;5045490;28;20488;-51
2022/02/04 10:40:55;;;;;;;4.20;2.90;;;;;;;;;;5031593;28;20099;-52
2022/02/04 10:43:36;;;;;;;4.47;2.80;;;;;;;;;;5040785;28;20025;-48
2022/02/04 10:46:27;;;;;;;2.90;2.20;;;;;;;;;;5027364;28;20112;-50
2022/02/04 10:49:26;;;;;;;4.28;2.58;;;;;;;;;;5026244;28;20024;-52
2022/02/04 11:00:07;;;;;;;4.13;2.75;;;;;;;;;;5026907;28;20554;-52
2022/02/04 11:03:09;;;;;;;4.13;2.75;;;;;;;;;;5037412;28;20032;-49
2022/02/04 11:05:32;;;;;;;3.38;2.50;;;;;;;;;;5032090;28;20552;-51
2022/02/04 11:10:46;;;;;;;7.65;3.50;;;;;;;;;;5033429;28;20083;-49
2022/02/04 11:31:02;;;;;;;5.80;2.85;;;;;;;;;;5027098;28;20040;-50
2022/02/04 11:36:49;;;;;;;3.80;2.30;;;;;;;;;;5036312;28;20045;-51
2022/02/04 11:51:33;;;;;;;2.42;1.80;;;;;;;;;;5039665;28;20051;-52
2022/02/04 11:56:56;;;;;;;3.22;2.08;;;;;;;;;;5046985;28;20036;-51
2022/02/04 11:59:34;;;;;;;2.47;1.90;;;;;;;;;;5041951;28;20025;-48
2022/02/04 12:02:01;;;;;;;2.78;2.25;;;;;;;;;;5041853;28;20068;-51
2022/02/04 12:04:27;;;;;;;3.03;2.20;;;;;;;;;;5045253;28;20132;-52
2022/02/04 12:06:56;;;;;;;2.70;2.08;;;;;;;;;;5037212;28;20029;-50
2022/02/04 12:09:35;;;;;;;2.60;1.98;;;;;;;;;;5038571;28;20107;-52
2022/02/04 12:12:02;;;;;;;3.78;2.10;;;;;;;;;;5039945;28;20695;-52
2022/02/04 12:14:32;;;;;;;2.20;1.70;;;;;;;;;;5027963;28;20401;-52
2022/02/04 12:17:02;;;;;;;2.30;1.95;;;;;;;;;;5029512;28;20025;-51
2022/02/04 12:19:46;;;;;;;2.38;1.67;;;;;;;;;;5028122;28;20017;-51
2022/02/04 12:22:12;;;;;;;1.90;1.55;;;;;;;;;;5028005;28;20025;-51
2022/02/04 12:24:41;;;;;;;2.35;1.75;;;;;;;;;;5027475;28;20411;-50
2022/02/04 12:27:26;;;;;;;2.60;1.95;;;;;;;;;;5027959;28;20091;-51
2022/02/04 12:29:53;;;;;;;1.85;1.25;;;;;;;;;;5028294;28;20021;-51
2022/02/04 12:32:19;;;;;;;2.25;1.35;;;;;;;;;;5027725;28;20413;-51
2022/02/04 12:34:49;;;;;;;2.97;1.83;;;;;;;;;;5027494;28;20739;-50
2022/02/04 12:37:19;;;;;;;2.05;1.27;;;;;;;;;;5027825;28;20345;-51
2022/02/04 12:39:46;;;;;;;2.67;1.60;;;;;;;;;;5027078;28;20535;-52
2022/02/04 12:42:13;;;;;;;1.85;1.40;;;;;;;;;;5027554;28;20521;-50
2022/02/04 12:44:41;;;;;;;1.73;1.48;;;;;;;;;;5027372;28;20452;-53
2022/02/04 12:47:14;;;;;;;1.42;1.10;;;;;;;;;;5027476;28;20132;-51
2022/02/04 12:49:54;;;;;;;2.28;1.42;;;;;;;;;;5025404;28;20026;-52
2022/02/04 12:52:28;;;;;;;1.80;1.15;;;;;;;;;;5027983;28;20048;-52
2022/02/04 12:55:07;;;;;;;;;;;;;;;;;;5026915;28;20018;-50
2022/02/04 12:57:55;;;;;;;1.25;1.08;;;;;;;;;;5027760;28;19916;-51
2022/02/04 13:08:13;;;;;;;1.08;0.90;;;;;;;;;;5026858;28;20060;-51
2022/02/04 13:10:39;;;;;;;1.10;0.90;;;;;;;;;;5027007;28;20029;-51
2022/02/04 13:13:06;;;;;;;1.27;0.90;;;;;;;;;;5027658;28;20017;-50
2022/02/04 13:15:36;;;;;;;1.38;1.00;;;;;;;;;;5027399;28;20065;-52
2022/02/04 13:18:06;;;;;;;1.00;0.90;;;;;;;;;;5026699;28;20029;-48
2022/02/04 13:20:32;;;;;;;1.20;0.90;;;;;;;;;;5027557;28;20703;-49
2022/02/04 13:23:00;;;;;;;0.95;0.90;;;;;;;;;;5027103;28;20021;-48
2022/02/04 13:25:34;;;;;;;1.15;0.90;;;;;;;;;;5026332;28;20359;-49
2022/02/04 13:28:03;;;;;;;1.27;1.03;;;;;;;;;;5026795;28;20022;-49
2022/02/04 13:30:30;;;;;;;0.80;0.80;;;;;;;;;;5026523;28;20128;-49
2022/02/04 13:32:57;;;;;;;1.63;1.00;;;;;;;;;;5026652;28;20029;-51
2022/02/04 13:35:30;;;;;;;1.08;0.85;;;;;;;;;;5026337;28;20060;-52
2022/02/04 13:38:01;;;;;;;0.80;0.80;;;;;;;;;;5026626;28;20025;-51
2022/02/04 13:40:51;;;;;;;0.93;0.80;;;;;;;;;;5026217;28;20022;-52
2022/02/04 13:43:21;;;;;;;1.90;1.00;;;;;;;;;;5026576;28;20433;-51
2022/02/04 13:45:55;;;;;;;1.60;1.02;;;;;;;;;;5026208;28;20025;-52
2022/02/04 13:48:36;;;;;;;0.88;0.80;;;;;;;;;;5026390;28;20114;-51
2022/02/04 13:51:22;;;;;;;1.00;0.90;;;;;;;;;;5026709;28;20052;-52
2022/02/04 13:54:10;;;;;;;1.20;0.95;;;;;;;;;;5026110;28;20025;-51
2022/02/04 13:56:47;;;;;;;1.02;0.80;;;;;;;;;;5026738;28;20090;-49
2022/02/04 13:59:22;;;;;;;1.33;1.10;;;;;;;;;;5026005;28;20025;-52
2022/02/04 14:01:56;;;;;;;1.70;1.02;;;;;;;;;;5025952;28;20068;-49
2022/02/04 14:04:23;;;;;;;0.98;0.95;;;;;;;;;;5025928;28;20501;-52
2022/02/04 14:06:49;;;;;;;1.23;1.10;;;;;;;;;;5026007;28;20037;-52
2022/02/04 14:09:19;;;;;;;0.82;0.80;;;;;;;;;;5024292;28;20072;-51
2022/02/04 14:11:45;;;;;;;1.27;0.90;;;;;;;;;;5025636;28;20501;-52
2022/02/04 14:14:12;;;;;;;0.95;0.90;;;;;;;;;;5025672;28;20489;-51
2022/02/04 14:16:39;;;;;;;0.77;0.77;;;;;;;;;;5025257;28;20025;-52
2022/02/04 14:19:07;;;;;;;0.93;0.90;;;;;;;;;;5026451;28;20026;-51
2022/02/04 14:21:33;;;;;;;0.88;0.80;;;;;;;;;;5026075;28;20029;-51
2022/02/04 14:24:06;;;;;;;1.10;1.00;;;;;;;;;;5025416;28;20032;-51
2022/02/04 14:26:36;;;;;;;1.42;0.90;;;;;;;;;;5025646;28;20025;-51
2022/02/04 14:29:19;;;;;;;2.45;1.08;;;;;;;;;;5025077;28;20032;-49
2022/02/04 14:37:04;;;;;;;1.00;0.90;;;;;;;;;;5025387;28;20405;-52
2022/02/04 14:53:26;;;;;;;1.00;0.90;;;;;;;;;;5024658;28;20037;-52
2022/02/04 14:59:28;;;;;;;1.08;0.98;;;;;;;;;;5024557;28;20292;-51
2022/02/04 15:01:55;;;;;;;0.80;0.80;;;;;;;;;;5024474;28;20045;-53
2022/02/04 15:04:36;;;;;;;1.48;0.90;;;;;;;;;;5025193;28;20478;-50
2022/02/04 15:07:03;;;;;;;1.75;1.00;;;;;;;;;;5024711;28;20386;-52
2022/02/04 15:09:30;;;;;;;1.38;1.00;;;;;;;;;;5024306;28;20017;-50
2022/02/04 15:11:56;;;;;;;1.20;1.00;;;;;;;;;;5024868;28;20041;-51
2022/02/04 15:14:22;;;;;;;1.17;0.82;;;;;;;;;;5024421;28;20025;-52
2022/02/04 15:16:48;;;;;;;0.93;0.80;;;;;;;;;;5025216;28;20043;-52
2022/02/04 15:19:14;;;;;;;0.90;0.75;;;;;;;;;;5025045;28;20087;-51
2022/02/04 15:21:44;;;;;;;0.80;0.80;;;;;;;;;;5024476;28;20394;-52
2022/02/04 15:24:11;;;;;;;1.08;0.90;;;;;;;;;;5024661;28;20025;-51
2022/02/04 15:26:37;;;;;;;1.55;0.65;;;;;;;;;;5024485;28;20079;-51
2022/02/04 15:29:07;;;;;;;1.60;1.00;;;;;;;;;;5024417;28;20390;-48
2022/02/04 15:34:06;;;;;;;1.10;1.00;;;;;;;;;;5024710;28;20117;-52
2022/02/04 15:36:38;;;;;;;1.60;1.20;;;;;;;;;;5024040;28;20029;-51
2022/02/04 15:39:06;;;;;;;0.98;0.80;;;;;;;;;;5024418;28;20033;-51
2022/02/04 15:41:33;;;;;;;1.30;1.00;;;;;;;;;;5028808;28;20062;-52
2022/02/04 15:44:06;;;;;;;1.20;0.95;;;;;;;;;;5041457;28;20021;-50
2022/02/04 15:46:44;;;;;;;1.23;0.98;;;;;;;;;;5032088;28;20033;-51
2022/02/04 15:57:15;;;;;;;1.55;1.08;;;;;;;;;;5036966;28;20087;-53
2022/02/04 16:02:44;;;;;;;1.42;1.10;;;;;;;;;;5041638;28;20412;-51
2022/02/04 16:04:44;;;;;;;1.17;1.00;;;;;;;;;;5040460;28;20056;-50
2022/02/04 16:07:10;;;;;;;2.15;1.30;;;;;;;;;;5035355;28;20029;-51
2022/02/04 16:09:37;;;;;;;1.38;1.00;;;;;;;;;;5036407;28;20492;-51
2022/02/04 16:12:20;;;;;;;1.15;1.00;;;;;;;;;;5041596;28;20036;-51
2022/02/04 16:14:58;;;;;;;1.23;1.00;;;;;;;;;;5043345;28;20029;-51
2022/02/04 16:17:33;;;;;;;2.28;1.48;;;;;;;;;;5031787;28;20025;-51
2022/02/04 16:20:15;;;;;;;1.77;1.40;;;;;;;;;;5046668;28;20037;-52
2022/02/04 16:23:05;;;;;;;1.63;1.42;;;;;;;;;;5030061;28;20116;-49
2022/02/04 16:25:41;;;;;;;1.10;1.00;;;;;;;;;;5038876;28;20111;-53
2022/02/04 16:30:52;;;;;;;2.20;1.45;;;;;;;;;;5049188;28;20040;-52
2022/02/04 16:33:19;;;;;;;1.67;1.20;;;;;;;;;;5049490;28;20043;-53
2022/02/04 16:35:46;;;;;;;1.63;1.20;;;;;;;;;;5048626;28;20052;-52
2022/02/04 16:38:17;;;;;;;1.45;1.23;;;;;;;;;;5033030;28;20485;-52
2022/02/04 16:40:46;;;;;;;1.58;1.30;;;;;;;;;;5028887;28;20451;-52
2022/02/04 16:43:15;;;;;;;1.63;1.20;;;;;;;;;;5043479;28;20493;-50
2022/02/04 16:45:41;;;;;;;1.48;0.93;;;;;;;;;;5045107;28;20029;-52
2022/02/04 16:48:07;;;;;;;3.38;1.33;;;;;;;;;;5047342;28;20025;-50
2022/02/04 16:50:33;;;;;;;6.00;2.55;;;;;;;;;;5044529;28;20055;-52
2022/02/04 16:53:00;;;;;;;8.20;3.40;;;;;;;;;;5038390;28;20065;-52
2022/02/04 16:55:26;;;;;;;8.15;3.72;;;;;;;;;;5028394;28;20132;-49
2022/02/04 16:57:54;;;;;;;7.30;3.30;;;;;;;;;;5040344;28;20104;-52
2022/02/04 17:00:25;;;;;;;5.15;2.50;;;;;;;;;;5047184;28;20075;-53
2022/02/04 17:02:52;;;;;;;5.07;2.60;;;;;;;;;;5053279;28;20047;-49
2022/02/04 17:05:21;;;;;;;3.63;2.30;;;;;;;;;;5048054;28;20025;-50
2022/02/04 17:07:56;;;;;;;4.45;2.35;;;;;;;;;;5037190;28;20052;-50
2022/02/04 17:10:32;;;;;;;3.63;2.20;;;;;;;;;;5047676;28;20032;-51
2022/02/04 17:13:01;;;;;;;4.82;3.00;;;;;;;;;;5046160;28;20454;-49
2022/02/04 17:15:31;;;;;;;4.55;2.90;;;;;;;;;;5047859;28;20063;-50
2022/02/04 17:17:59;;;;;;;4.93;3.08;;;;;;;;;;5033004;28;20471;-52
2022/02/04 17:20:25;;;;;;;5.10;2.85;;;;;;;;;;5027786;28;20036;-51
2022/02/04 17:22:51;;;;;;;4.22;2.75;;;;;;;;;;5041076;28;20024;-54
2022/02/04 17:25:25;;;;;;;3.35;2.60;;;;;;;;;;5033018;28;20398;-52
2022/02/04 17:27:51;;;;;;;3.65;2.30;;;;;;;;;;5035686;28;20060;-50
2022/02/04 17:30:18;;;;;;;4.05;2.75;;;;;;;;;;5043651;28;20021;-51
2022/02/04 17:32:44;;;;;;;3.92;2.50;;;;;;;;;;5040048;28;20108;-52
2022/02/04 17:35:11;;;;;;;3.67;2.70;;;;;;;;;;5041131;28;20405;-50
2022/02/04 17:37:38;;;;;;;3.58;2.70;;;;;;;;;;5038847;28;20029;-50
2022/02/04 17:40:05;;;;;;;3.08;2.20;;;;;;;;;;5039850;28;20064;-51
2022/02/04 17:42:31;;;;;;;3.47;2.53;;;;;;;;;;5030923;28;20029;-49
2022/02/04 17:44:58;;;;;;;3.22;2.30;;;;;;;;;;5043545;28;20059;-48
2022/02/04 17:47:26;;;;;;;2.95;2.20;;;;;;;;;;5047628;28;20028;-52
2022/02/04 17:52:28;;;;;;;4.25;2.25;;;;;;;;;;5061295;28;20546;-52
2022/02/04 17:55:00;;;;;;;3.10;2.50;;;;;;;;;;5067317;28;20021;-52
2022/02/04 17:58:12;;;;;;;3.58;2.50;;;;;;;;;;5050373;28;20025;-52
2022/02/04 18:06:05;;;;;;;3.78;2.45;;;;;;;;;;5044518;28;20033;-52
2022/02/04 18:08:31;;;;;;;3.95;2.50;;;;;;;;;;5046918;28;20056;-51
2022/02/04 18:11:03;;;;;;;4.22;2.75;;;;;;;;;;5040738;28;20026;-49
2022/02/04 18:13:29;;;;;;;3.78;2.53;;;;;;;;;;5027788;28;20069;-52
2022/02/04 18:15:55;;;;;;;3.28;2.17;;;;;;;;;;5028249;28;20108;-51
2022/02/04 18:18:24;;;;;;;4.03;2.58;;;;;;;;;;5047574;28;20028;-48
2022/02/04 18:20:52;;;;;;;3.65;2.55;;;;;;;;;;5040939;28;20033;-52
2022/02/04 18:23:20;;;;;;;4.20;2.45;;;;;;;;;;5037605;28;20388;-52
2022/02/04 18:25:50;;;;;;;3.95;2.63;;;;;;;;;;5027215;28;20485;-51
2022/02/04 18:28:16;;;;;;;3.10;2.25;;;;;;;;;;5026989;28;20069;-53
2022/02/04 18:30:42;;;;;;;3.50;2.58;;;;;;;;;;5032257;28;20032;-51
2022/02/04 18:33:09;;;;;;;3.05;2.50;;;;;;;;;;5040251;28;20033;-52
2022/02/04 18:35:35;;;;;;;3.78;2.72;;;;;;;;;;5025604;28;20033;-51
2022/02/04 18:45:57;;;;;;;4.45;2.72;;;;;;;;;;5034338;28;20040;-49
2022/02/04 18:48:27;;;;;;;4.88;3.15;;;;;;;;;;5034277;28;20061;-51
2022/02/04 18:53:55;;;;;;;4.18;2.78;;;;;;;;;;5036403;28;20037;-52
2022/02/04 18:56:29;;;;;;;4.50;2.85;;;;;;;;;;5037978;28;20048;-52
2022/02/04 18:58:55;;;;;;;4.38;2.90;;;;;;;;;;5034608;28;20040;-52
2022/02/04 19:01:25;;;;;;;4.15;2.90;;;;;;;;;;5033732;28;20047;-52
2022/02/04 19:03:57;;;;;;;4.35;2.88;;;;;;;;;;5032945;28;20025;-51
2022/02/04 19:06:46;;;;;;;3.85;2.78;;;;;;;;;;5033079;28;20489;-51
2022/02/04 19:09:11;;;;;;;5.20;3.15;;;;;;;;;;5034664;28;20036;-52
2022/02/04 19:11:49;;;;;;;3.92;2.60;;;;;;;;;;5029921;28;20079;-52
2022/02/04 19:14:33;;;;;;;3.67;2.47;;;;;;;;;;5030201;28;20432;-52
2022/02/04 19:24:21;;;;;;;6.47;3.55;;;;;;;;;;5031295;28;20187;-52
2022/02/04 19:26:47;;;;;;;7.82;4.57;;;;;;;;;;5030392;28;20020;-51
2022/02/04 19:29:13;;;;;;;9.25;5.47;;;;;;;;;;5034108;28;20036;-51
2022/02/04 19:31:50;;;;;;;13.43;6.82;;;;;;;;;;5037884;28;20823;-51
2022/02/04 19:34:16;;;;;;;13.63;7.20;;;;;;;;;;5028573;28;20049;-51
2022/02/04 19:36:43;;;;;;;9.45;6.00;;;;;;;;;;5029968;28;20614;-52
2022/02/04 19:39:09;;;;;;;10.95;6.43;;;;;;;;;;5034778;28;20033;-50
2022/02/04 19:41:35;;;;;;;8.98;5.43;;;;;;;;;;5042730;28;20539;-50
2022/02/04 19:44:01;;;;;;;7.82;4.85;;;;;;;;;;5031467;28;20040;-49
2022/02/04 19:46:33;;;;;;;8.18;5.10;;;;;;;;;;5031494;28;20022;-51
2022/02/04 19:49:04;;;;;;;8.20;4.57;;;;;;;;;;5036980;28;20484;-51
2022/02/04 20:26:54;;;;;;;7.68;4.40;;;;;;;;;;5027668;28;20400;-50
2022/02/04 20:29:20;;;;;;;7.07;3.65;;;;;;;;;;5026675;28;20029;-51
2022/02/04 20:31:46;;;;;;;8.23;4.40;;;;;;;;;;5040829;28;20036;-50
2022/02/04 20:34:12;;;;;;;9.65;4.60;;;;;;;;;;5048215;28;20504;-50
2022/02/04 20:36:38;;;;;;;9.27;4.70;;;;;;;;;;5039167;28;20040;-51
2022/02/04 20:39:07;;;;;;;9.85;4.55;;;;;;;;;;5036418;28;20036;-49
2022/02/04 20:41:34;;;;;;;9.70;4.55;;;;;;;;;;5032113;28;20040;-52
2022/02/04 20:44:00;;;;;;;9.20;4.93;;;;;;;;;;5031515;28;20329;-50
2022/02/04 20:46:26;;;;;;;8.82;4.50;;;;;;;;;;5028872;28;20029;-49
2022/02/04 20:48:53;;;;;;;8.43;4.25;;;;;;;;;;5048751;28;20446;-51
2022/02/04 20:51:20;;;;;;;6.88;4.50;;;;;;;;;;5033459;28;20030;-48
2022/02/04 20:53:46;;;;;;;6.30;3.70;;;;;;;;;;5033987;28;20144;-48
2022/02/04 20:56:13;;;;;;;6.75;3.65;;;;;;;;;;5046033;28;20420;-49
2022/02/04 20:58:39;;;;;;;7.90;4.00;;;;;;;;;;5042187;28;20032;-51
2022/02/04 21:01:13;;;;;;;8.80;4.97;;;;;;;;;;5035759;28;20033;-50
2022/02/04 21:03:41;;;;;;;8.63;5.38;;;;;;;;;;5044816;28;20439;-51
2022/02/04 21:07:20;;;;;;;13.73;7.03;;;;;;;;;;5031597;28;20037;-51
2022/02/04 21:17:40;;;;;;;8.35;5.20;;;;;;;;;;5039899;28;20242;-52
2022/02/04 21:20:08;;;;;;;8.15;4.80;;;;;;;;;;5026198;28;20033;-51
2022/02/04 21:22:35;;;;;;;8.55;5.13;;;;;;;;;;5029791;28;20018;-51
2022/02/04 21:25:01;;;;;;;7.47;4.63;;;;;;;;;;5044657;28;20078;-52
2022/02/04 21:27:29;;;;;;;6.07;3.92;;;;;;;;;;5030468;28;20547;-52
2022/02/04 21:29:56;;;;;;;5.68;3.80;;;;;;;;;;5030346;28;20025;-50
2022/02/04 21:32:22;;;;;;;5.93;3.88;;;;;;;;;;5042990;28;20553;-50
2022/02/04 21:37:34;;;;;;;6.15;4.00;;;;;;;;;;5038872;28;20576;-51
2022/02/04 21:40:01;;;;;;;6.15;3.95;;;;;;;;;;5037131;28;20049;-49
2022/02/04 21:42:29;;;;;;;5.65;3.80;;;;;;;;;;5042923;28;20025;-52
2022/02/04 21:44:58;;;;;;;5.55;3.42;;;;;;;;;;5032220;28;20061;-51
2022/02/04 21:47:31;;;;;;;7.20;3.53;;;;;;;;;;5028349;28;20040;-53
2022/02/04 21:50:02;;;;;;;3.97;3.00;;;;;;;;;;5045219;28;20041;-50
2022/02/04 21:52:28;;;;;;;4.07;2.90;;;;;;;;;;5045131;28;20021;-52
2022/02/04 21:54:54;;;;;;;5.20;3.20;;;;;;;;;;5031727;28;20068;-52
2022/02/04 21:57:20;;;;;;;4.20;2.95;;;;;;;;;;5031847;28;20048;-52
2022/02/04 21:59:46;;;;;;;3.90;2.75;;;;;;;;;;5032081;28;20056;-51
2022/02/04 22:02:13;;;;;;;4.35;2.95;;;;;;;;;;5040510;28;20053;-51